sensor_id;sensor_type;location;lat;lon;timestamp;pressure;altitude;pressure_sealevel;temperature;humidity
47811;BME280;33575;52.600;7.318;2022-10-16T00:00:54;100775.08;;;12.21;97.08
47811;BME280;33575;52.600;7.318;2022-10-16T00:03:29;100775.88;;;12.23;97.46
47811;BME280;33575;52.600;7.318;2022-10-16T00:05:59;100776.61;;;12.27;97.53
47811;BME280;33575;52.600;7.318;2022-10-16T00:08:26;100768.27;;;12.29;97.24
47811;BME280;33575;52.600;7.318;2022-10-16T00:11:00;100769.72;;;12.22;95.68
47811;BME280;33575;52.600;7.318;2022-10-16T00:13:27;100769.32;;;12.18;95.66
47811;BME280;33575;52.600;7.318;2022-10-16T00:15:58;100768.37;;;12.14;96.06
47811;BME280;33575;52.600;7.318;2022-10-16T00:18:28;100765.83;;;12.06;96.03
47811;BME280;33575;52.600;7.318;2022-10-16T00:21:02;100764.74;;;12.00;95.42
47811;BME280;33575;52.600;7.318;2022-10-16T00:23:28;100766.22;;;11.93;96.60
47811;BME280;33575;52.600;7.318;2022-10-16T00:26:01;100765.88;;;11.93;96.22
47811;BME280;33575;52.600;7.318;2022-10-16T00:28:30;100766.86;;;11.89;96.92
47811;BME280;33575;52.600;7.318;2022-10-16T00:31:03;100765.43;;;11.90;96.00
47811;BME280;33575;52.600;7.318;2022-10-16T00:33:30;100765.03;;;11.87;95.97
47811;BME280;33575;52.600;7.318;2022-10-16T00:36:03;100766.71;;;11.81;96.48
47811;BME280;33575;52.600;7.318;2022-10-16T00:38:32;100765.70;;;11.73;98.47
47811;BME280;33575;52.600;7.318;2022-10-16T00:41:02;100766.21;;;11.82;98.41
47811;BME280;33575;52.600;7.318;2022-10-16T00:43:37;100763.72;;;11.88;98.50
47811;BME280;33575;52.600;7.318;2022-10-16T00:46:08;100763.18;;;11.91;97.47
47811;BME280;33575;52.600;7.318;2022-10-16T00:48:33;100760.43;;;11.85;97.32
47811;BME280;33575;52.600;7.318;2022-10-16T00:51:04;100766.65;;;11.78;97.26
47811;BME280;33575;52.600;7.318;2022-10-16T00:53:35;100768.06;;;11.73;97.45
47811;BME280;33575;52.600;7.318;2022-10-16T00:56:05;100766.19;;;11.63;97.97
47811;BME280;33575;52.600;7.318;2022-10-16T00:58:36;100763.93;;;11.56;97.26
47811;BME280;33575;52.600;7.318;2022-10-16T01:01:06;100763.32;;;11.51;97.72
47811;BME280;33575;52.600;7.318;2022-10-16T01:03:37;100760.65;;;11.49;97.98
47811;BME280;33575;52.600;7.318;2022-10-16T01:08:44;100751.18;;;11.52;97.84
47811;BME280;33575;52.600;7.318;2022-10-16T01:11:14;100755.49;;;11.60;97.95
47811;BME280;33575;52.600;7.318;2022-10-16T01:13:42;100762.18;;;11.54;100.00
47811;BME280;33575;52.600;7.318;2022-10-16T01:16:13;100770.68;;;11.56;100.00
47811;BME280;33575;52.600;7.318;2022-10-16T01:18:43;100772.15;;;11.64;100.00
47811;BME280;33575;52.600;7.318;2022-10-16T01:21:12;100768.02;;;11.73;100.00
47811;BME280;33575;52.600;7.318;2022-10-16T01:23:48;100765.47;;;11.75;99.73
47811;BME280;33575;52.600;7.318;2022-10-16T01:26:20;100767.18;;;11.75;99.97
47811;BME280;33575;52.600;7.318;2022-10-16T01:28:46;100765.47;;;11.75;99.04
47811;BME280;33575;52.600;7.318;2022-10-16T01:31:14;100761.76;;;11.62;99.38
47811;BME280;33575;52.600;7.318;2022-10-16T01:33:45;100758.41;;;11.53;99.88
47811;BME280;33575;52.600;7.318;2022-10-16T01:36:15;100753.77;;;11.54;98.70
47811;BME280;33575;52.600;7.318;2022-10-16T01:38:48;100762.89;;;11.67;99.52
47811;BME280;33575;52.600;7.318;2022-10-16T01:41:17;100765.65;;;11.71;99.59
47811;BME280;33575;52.600;7.318;2022-10-16T01:43:47;100772.12;;;11.67;99.80
47811;BME280;33575;52.600;7.318;2022-10-16T01:46:17;100771.91;;;11.61;100.00
47811;BME280;33575;52.600;7.318;2022-10-16T01:48:46;100771.21;;;11.63;100.00
47811;BME280;33575;52.600;7.318;2022-10-16T01:51:17;100768.39;;;11.59;100.00
47811;BME280;33575;52.600;7.318;2022-10-16T01:53:50;100774.42;;;11.69;100.00
47811;BME280;33575;52.600;7.318;2022-10-16T01:56:18;100780.00;;;11.72;100.00
47811;BME280;33575;52.600;7.318;2022-10-16T01:58:52;100776.25;;;11.82;100.00
47811;BME280;33575;52.600;7.318;2022-10-16T02:01:20;100770.69;;;11.90;100.00
47811;BME280;33575;52.600;7.318;2022-10-16T02:03:50;100766.77;;;11.79;98.46
47811;BME280;33575;52.600;7.318;2022-10-16T02:06:19;100760.66;;;11.90;99.44
47811;BME280;33575;52.600;7.318;2022-10-16T02:08:49;100762.38;;;11.85;100.00
47811;BME280;33575;52.600;7.318;2022-10-16T02:11:20;100763.48;;;11.85;100.00
47811;BME280;33575;52.600;7.318;2022-10-16T02:13:54;100760.18;;;11.77;100.00
47811;BME280;33575;52.600;7.318;2022-10-16T02:16:23;100758.10;;;11.80;99.82
47811;BME280;33575;52.600;7.318;2022-10-16T02:18:51;100759.30;;;11.75;99.35
47811;BME280;33575;52.600;7.318;2022-10-16T02:21:26;100755.30;;;11.78;99.77
47811;BME280;33575;52.600;7.318;2022-10-16T02:23:57;100753.71;;;11.67;99.45
47811;BME280;33575;52.600;7.318;2022-10-16T02:26:28;100756.72;;;11.51;100.00
47811;BME280;33575;52.600;7.318;2022-10-16T02:28:56;100752.45;;;11.69;100.00
47811;BME280;33575;52.600;7.318;2022-10-16T02:31:27;100754.93;;;11.73;100.00
47811;BME280;33575;52.600;7.318;2022-10-16T02:33:58;100760.37;;;11.84;100.00
47811;BME280;33575;52.600;7.318;2022-10-16T02:36:25;100766.82;;;11.84;100.00
47811;BME280;33575;52.600;7.318;2022-10-16T02:38:55;100774.88;;;11.80;100.00
47811;BME280;33575;52.600;7.318;2022-10-16T02:41:26;100774.36;;;11.89;99.19
47811;BME280;33575;52.600;7.318;2022-10-16T02:43:56;100770.12;;;11.85;99.56
47811;BME280;33575;52.600;7.318;2022-10-16T02:46:27;100757.93;;;11.62;100.00
47811;BME280;33575;52.600;7.318;2022-10-16T02:48:57;100756.09;;;11.69;100.00
47811;BME280;33575;52.600;7.318;2022-10-16T02:51:28;100756.25;;;11.61;100.00
47811;BME280;33575;52.600;7.318;2022-10-16T02:53:58;100761.68;;;11.60;100.00
47811;BME280;33575;52.600;7.318;2022-10-16T02:56:29;100758.50;;;11.67;99.60
47811;BME280;33575;52.600;7.318;2022-10-16T02:58:59;100762.57;;;11.60;100.00
47811;BME280;33575;52.600;7.318;2022-10-16T03:01:30;100757.72;;;11.63;100.00
47811;BME280;33575;52.600;7.318;2022-10-16T03:04:00;100763.08;;;11.62;100.00
47811;BME280;33575;52.600;7.318;2022-10-16T03:06:31;100758.39;;;11.67;100.00
47811;BME280;33575;52.600;7.318;2022-10-16T03:09:01;100762.94;;;11.82;100.00
47811;BME280;33575;52.600;7.318;2022-10-16T03:11:32;100766.98;;;11.81;100.00
47811;BME280;33575;52.600;7.318;2022-10-16T03:14:02;100758.94;;;11.88;100.00
47811;BME280;33575;52.600;7.318;2022-10-16T03:16:33;100761.34;;;11.94;100.00
47811;BME280;33575;52.600;7.318;2022-10-16T03:19:03;100769.10;;;12.03;100.00
47811;BME280;33575;52.600;7.318;2022-10-16T03:21:34;100768.22;;;12.01;100.00
47811;BME280;33575;52.600;7.318;2022-10-16T03:24:04;100777.07;;;12.09;100.00
47811;BME280;33575;52.600;7.318;2022-10-16T03:26:34;100780.03;;;12.19;100.00
47811;BME280;33575;52.600;7.318;2022-10-16T03:29:05;100783.48;;;12.34;100.00
47811;BME280;33575;52.600;7.318;2022-10-16T03:31:35;100782.53;;;12.46;100.00
47811;BME280;33575;52.600;7.318;2022-10-16T03:34:06;100784.94;;;12.52;100.00
47811;BME280;33575;52.600;7.318;2022-10-16T03:36:36;100789.72;;;12.53;100.00
47811;BME280;33575;52.600;7.318;2022-10-16T03:39:06;100791.35;;;12.58;100.00
47811;BME280;33575;52.600;7.318;2022-10-16T03:41:37;100799.37;;;12.62;100.00
47811;BME280;33575;52.600;7.318;2022-10-16T03:44:08;100807.02;;;12.64;100.00
47811;BME280;33575;52.600;7.318;2022-10-16T03:46:38;100780.78;;;12.67;100.00
47811;BME280;33575;52.600;7.318;2022-10-16T03:49:10;100781.13;;;12.68;100.00
47811;BME280;33575;52.600;7.318;2022-10-16T03:51:39;100781.89;;;12.71;100.00
47811;BME280;33575;52.600;7.318;2022-10-16T03:54:10;100786.15;;;12.68;100.00
47811;BME280;33575;52.600;7.318;2022-10-16T03:56:40;100783.22;;;12.71;100.00
47811;BME280;33575;52.600;7.318;2022-10-16T03:59:11;100782.20;;;12.75;100.00
47811;BME280;33575;52.600;7.318;2022-10-16T04:01:41;100781.70;;;12.74;100.00
47811;BME280;33575;52.600;7.318;2022-10-16T04:04:12;100784.75;;;12.78;100.00
47811;BME280;33575;52.600;7.318;2022-10-16T04:06:42;100788.31;;;12.85;100.00
47811;BME280;33575;52.600;7.318;2022-10-16T04:09:13;100796.95;;;12.89;100.00
47811;BME280;33575;52.600;7.318;2022-10-16T04:11:43;100802.14;;;12.88;100.00
47811;BME280;33575;52.600;7.318;2022-10-16T04:14:14;100806.57;;;12.87;100.00
47811;BME280;33575;52.600;7.318;2022-10-16T04:16:44;100808.01;;;12.90;100.00
47811;BME280;33575;52.600;7.318;2022-10-16T04:19:14;100811.82;;;12.90;100.00
47811;BME280;33575;52.600;7.318;2022-10-16T04:21:45;100816.85;;;12.95;100.00
47811;BME280;33575;52.600;7.318;2022-10-16T04:24:15;100820.61;;;12.97;99.98
47811;BME280;33575;52.600;7.318;2022-10-16T04:26:46;100820.86;;;12.97;99.99
47811;BME280;33575;52.600;7.318;2022-10-16T04:29:16;100828.93;;;13.03;99.74
47811;BME280;33575;52.600;7.318;2022-10-16T04:31:47;100826.52;;;13.00;99.83
47811;BME280;33575;52.600;7.318;2022-10-16T04:34:17;100833.98;;;13.04;99.84
47811;BME280;33575;52.600;7.318;2022-10-16T04:36:48;100834.26;;;13.09;99.66
47811;BME280;33575;52.600;7.318;2022-10-16T04:39:18;100832.08;;;13.07;99.72
47811;BME280;33575;52.600;7.318;2022-10-16T04:41:48;100831.79;;;13.08;99.55
47811;BME280;33575;52.600;7.318;2022-10-16T04:44:19;100830.39;;;13.09;99.46
47811;BME280;33575;52.600;7.318;2022-10-16T04:46:51;100832.99;;;13.16;99.42
47811;BME280;33575;52.600;7.318;2022-10-16T04:49:20;100836.58;;;13.17;99.23
47811;BME280;33575;52.600;7.318;2022-10-16T04:51:50;100829.91;;;13.14;99.44
47811;BME280;33575;52.600;7.318;2022-10-16T04:54:20;100840.61;;;13.11;99.56
47811;BME280;33575;52.600;7.318;2022-10-16T04:56:51;100838.90;;;13.00;100.00
47811;BME280;33575;52.600;7.318;2022-10-16T04:59:22;100843.29;;;13.07;99.80
47811;BME280;33575;52.600;7.318;2022-10-16T05:01:52;100849.29;;;13.06;99.70
47811;BME280;33575;52.600;7.318;2022-10-16T05:04:22;100849.58;;;13.09;99.66
47811;BME280;33575;52.600;7.318;2022-10-16T05:06:53;100846.24;;;13.09;99.70
47811;BME280;33575;52.600;7.318;2022-10-16T05:09:23;100849.16;;;13.08;99.62
47811;BME280;33575;52.600;7.318;2022-10-16T05:11:53;100852.46;;;13.11;99.58
47811;BME280;33575;52.600;7.318;2022-10-16T05:14:24;100862.07;;;13.14;99.42
47811;BME280;33575;52.600;7.318;2022-10-16T05:16:54;100864.90;;;13.08;99.60
47811;BME280;33575;52.600;7.318;2022-10-16T05:19:30;100867.54;;;13.07;99.70
47811;BME280;33575;52.600;7.318;2022-10-16T05:21:55;100870.04;;;13.02;99.92
47811;BME280;33575;52.600;7.318;2022-10-16T05:24:26;100880.42;;;13.06;99.88
47811;BME280;33575;52.600;7.318;2022-10-16T05:26:56;100889.35;;;12.97;100.00
47811;BME280;33575;52.600;7.318;2022-10-16T05:29:26;100892.94;;;12.92;100.00
47811;BME280;33575;52.600;7.318;2022-10-16T05:31:57;100893.64;;;12.96;100.00
47811;BME280;33575;52.600;7.318;2022-10-16T05:34:27;100888.75;;;12.96;100.00
47811;BME280;33575;52.600;7.318;2022-10-16T05:36:58;100892.54;;;13.03;100.00
47811;BME280;33575;52.600;7.318;2022-10-16T05:39:28;100898.70;;;13.04;100.00
47811;BME280;33575;52.600;7.318;2022-10-16T05:41:59;100892.66;;;13.05;100.00
47811;BME280;33575;52.600;7.318;2022-10-16T05:44:29;100897.50;;;13.14;99.89
47811;BME280;33575;52.600;7.318;2022-10-16T05:46:59;100901.24;;;13.10;99.75
47811;BME280;33575;52.600;7.318;2022-10-16T05:49:30;100907.49;;;13.10;99.71
47811;BME280;33575;52.600;7.318;2022-10-16T05:52:00;100913.64;;;13.08;100.00
47811;BME280;33575;52.600;7.318;2022-10-16T05:54:31;100909.92;;;13.10;99.68
47811;BME280;33575;52.600;7.318;2022-10-16T05:57:01;100908.28;;;13.12;99.71
47811;BME280;33575;52.600;7.318;2022-10-16T05:59:32;100919.08;;;13.09;99.80
47811;BME280;33575;52.600;7.318;2022-10-16T06:02:02;100915.36;;;13.01;100.00
47811;BME280;33575;52.600;7.318;2022-10-16T06:04:33;100919.79;;;13.05;100.00
47811;BME280;33575;52.600;7.318;2022-10-16T06:07:03;100919.26;;;13.08;99.81
47811;BME280;33575;52.600;7.318;2022-10-16T06:09:33;100927.23;;;13.00;99.91
47811;BME280;33575;52.600;7.318;2022-10-16T06:12:04;100922.17;;;13.08;99.80
47811;BME280;33575;52.600;7.318;2022-10-16T06:14:34;100919.99;;;13.11;99.74
47811;BME280;33575;52.600;7.318;2022-10-16T06:17:05;100922.72;;;13.10;99.55
47811;BME280;33575;52.600;7.318;2022-10-16T06:19:35;100927.05;;;12.99;99.97
47811;BME280;33575;52.600;7.318;2022-10-16T06:22:06;100938.99;;;13.03;99.88
47811;BME280;33575;52.600;7.318;2022-10-16T06:24:36;100948.19;;;13.09;99.63
47811;BME280;33575;52.600;7.318;2022-10-16T06:27:06;100949.31;;;13.09;99.35
47811;BME280;33575;52.600;7.318;2022-10-16T06:29:37;100956.00;;;13.09;99.30
47811;BME280;33575;52.600;7.318;2022-10-16T06:32:07;100960.43;;;13.06;99.44
47811;BME280;33575;52.600;7.318;2022-10-16T06:34:42;100964.58;;;13.02;99.50
47811;BME280;33575;52.600;7.318;2022-10-16T06:37:08;100973.87;;;13.07;99.51
47811;BME280;33575;52.600;7.318;2022-10-16T06:39:40;100977.36;;;13.16;99.19
47811;BME280;33575;52.600;7.318;2022-10-16T06:42:09;100976.41;;;13.05;99.46
47811;BME280;33575;52.600;7.318;2022-10-16T06:44:39;100978.75;;;12.95;99.63
47811;BME280;33575;52.600;7.318;2022-10-16T06:47:10;100982.83;;;13.00;99.77
47811;BME280;33575;52.600;7.318;2022-10-16T06:49:40;100986.81;;;12.98;99.88
47811;BME280;33575;52.600;7.318;2022-10-16T06:52:11;100990.64;;;13.03;99.98
47811;BME280;33575;52.600;7.318;2022-10-16T06:54:43;100994.47;;;13.07;99.96
47811;BME280;33575;52.600;7.318;2022-10-16T06:57:12;100997.79;;;13.10;99.94
47811;BME280;33575;52.600;7.318;2022-10-16T06:59:47;101004.72;;;13.10;99.84
47811;BME280;33575;52.600;7.318;2022-10-16T07:02:12;101007.01;;;13.06;99.66
47811;BME280;33575;52.600;7.318;2022-10-16T07:04:43;101012.17;;;13.04;100.00
47811;BME280;33575;52.600;7.318;2022-10-16T07:07:13;101019.29;;;13.10;99.60
47811;BME280;33575;52.600;7.318;2022-10-16T07:09:44;101024.69;;;13.14;99.88
47811;BME280;33575;52.600;7.318;2022-10-16T07:12:14;101027.54;;;13.11;100.00
47811;BME280;33575;52.600;7.318;2022-10-16T07:14:45;101033.54;;;13.19;99.66
47811;BME280;33575;52.600;7.318;2022-10-16T07:17:15;101032.92;;;13.15;100.00
47811;BME280;33575;52.600;7.318;2022-10-16T07:19:45;101042.39;;;13.15;100.00
47811;BME280;33575;52.600;7.318;2022-10-16T07:22:16;101044.85;;;13.10;100.00
47811;BME280;33575;52.600;7.318;2022-10-16T07:24:51;101046.12;;;13.17;100.00
47811;BME280;33575;52.600;7.318;2022-10-16T07:27:17;101051.33;;;13.23;100.00
47811;BME280;33575;52.600;7.318;2022-10-16T07:29:47;101059.25;;;13.22;99.67
47811;BME280;33575;52.600;7.318;2022-10-16T07:32:17;101052.17;;;13.13;99.97
47811;BME280;33575;52.600;7.318;2022-10-16T07:34:48;101062.68;;;13.18;100.00
47811;BME280;33575;52.600;7.318;2022-10-16T07:37:19;101075.20;;;13.16;100.00
47811;BME280;33575;52.600;7.318;2022-10-16T07:39:49;101070.95;;;12.98;100.00
47811;BME280;33575;52.600;7.318;2022-10-16T07:42:19;101082.98;;;13.08;99.76
47811;BME280;33575;52.600;7.318;2022-10-16T07:44:50;101088.46;;;13.02;100.00
47811;BME280;33575;52.600;7.318;2022-10-16T07:47:20;101092.99;;;12.98;100.00
47811;BME280;33575;52.600;7.318;2022-10-16T07:49:50;101090.05;;;13.11;99.74
47811;BME280;33575;52.600;7.318;2022-10-16T07:52:21;101092.25;;;13.01;100.00
47811;BME280;33575;52.600;7.318;2022-10-16T07:54:52;101090.95;;;13.06;100.00
47811;BME280;33575;52.600;7.318;2022-10-16T07:57:22;101095.84;;;13.11;100.00
47811;BME280;33575;52.600;7.318;2022-10-16T07:59:52;101095.61;;;13.06;100.00
47811;BME280;33575;52.600;7.318;2022-10-16T08:02:23;101101.88;;;13.13;100.00
47811;BME280;33575;52.600;7.318;2022-10-16T08:04:53;101108.46;;;13.25;100.00
47811;BME280;33575;52.600;7.318;2022-10-16T08:07:24;101113.68;;;13.25;100.00
47811;BME280;33575;52.600;7.318;2022-10-16T08:09:54;101125.37;;;13.28;100.00
47811;BME280;33575;52.600;7.318;2022-10-16T08:12:24;101132.00;;;13.34;100.00
47811;BME280;33575;52.600;7.318;2022-10-16T08:14:55;101136.79;;;13.25;100.00
47811;BME280;33575;52.600;7.318;2022-10-16T08:17:26;101137.46;;;13.11;100.00
47811;BME280;33575;52.600;7.318;2022-10-16T08:19:55;101140.25;;;13.38;100.00
47811;BME280;33575;52.600;7.318;2022-10-16T08:22:26;101131.90;;;13.50;100.00
47811;BME280;33575;52.600;7.318;2022-10-16T08:24:57;101136.99;;;13.51;100.00
47811;BME280;33575;52.600;7.318;2022-10-16T08:27:31;101136.12;;;13.59;100.00
47811;BME280;33575;52.600;7.318;2022-10-16T08:29:57;101144.47;;;13.68;100.00
47811;BME280;33575;52.600;7.318;2022-10-16T08:32:28;101146.17;;;13.73;99.59
47811;BME280;33575;52.600;7.318;2022-10-16T08:34:58;101150.07;;;13.86;99.73
47811;BME280;33575;52.600;7.318;2022-10-16T08:37:29;101153.55;;;13.81;99.44
47811;BME280;33575;52.600;7.318;2022-10-16T08:39:59;101150.47;;;13.93;99.43
47811;BME280;33575;52.600;7.318;2022-10-16T08:42:40;101144.33;;;14.01;100.00
47811;BME280;33575;52.600;7.318;2022-10-16T08:47:42;101141.26;;;14.20;98.54
47811;BME280;33575;52.600;7.318;2022-10-16T08:50:08;101151.90;;;14.15;98.79
47811;BME280;33575;52.600;7.318;2022-10-16T08:52:33;101156.02;;;14.13;99.36
47811;BME280;33575;52.600;7.318;2022-10-16T08:55:02;101161.09;;;14.20;98.01
47811;BME280;33575;52.600;7.318;2022-10-16T08:57:32;101166.80;;;14.14;98.74
47811;BME280;33575;52.600;7.318;2022-10-16T09:00:12;101167.46;;;14.20;99.92
47811;BME280;33575;52.600;7.318;2022-10-16T09:02:36;101183.63;;;14.19;98.02
47811;BME280;33575;52.600;7.318;2022-10-16T09:05:18;101181.19;;;14.11;97.80
47811;BME280;33575;52.600;7.318;2022-10-16T09:07:39;101179.01;;;14.08;97.76
47811;BME280;33575;52.600;7.318;2022-10-16T09:10:14;101178.21;;;14.16;98.93
47811;BME280;33575;52.600;7.318;2022-10-16T09:12:38;101174.83;;;14.14;98.25
47811;BME280;33575;52.600;7.318;2022-10-16T09:15:14;101182.12;;;14.31;97.44
47811;BME280;33575;52.600;7.318;2022-10-16T09:17:42;101188.80;;;14.31;96.86
47811;BME280;33575;52.600;7.318;2022-10-16T09:20:13;101196.89;;;14.44;98.14
47811;BME280;33575;52.600;7.318;2022-10-16T09:22:36;101203.87;;;14.56;97.08
47811;BME280;33575;52.600;7.318;2022-10-16T09:25:12;101193.20;;;14.41;95.42
47811;BME280;33575;52.600;7.318;2022-10-16T09:27:37;101189.02;;;14.53;95.77
47811;BME280;33575;52.600;7.318;2022-10-16T09:30:12;101191.72;;;14.59;95.78
47811;BME280;33575;52.600;7.318;2022-10-16T09:32:38;101194.91;;;14.58;97.18
47811;BME280;33575;52.600;7.318;2022-10-16T09:35:13;101203.73;;;14.64;95.15
47811;BME280;33575;52.600;7.318;2022-10-16T09:37:38;101208.22;;;14.62;94.86
47811;BME280;33575;52.600;7.318;2022-10-16T09:40:13;101206.38;;;14.71;94.89
47811;BME280;33575;52.600;7.318;2022-10-16T09:42:41;101212.64;;;14.81;95.17
47811;BME280;33575;52.600;7.318;2022-10-16T09:47:41;101222.11;;;14.94;94.20
47811;BME280;33575;52.600;7.318;2022-10-16T09:50:20;101222.10;;;15.06;94.02
47811;BME280;33575;52.600;7.318;2022-10-16T09:52:40;101228.98;;;14.72;94.18
47811;BME280;33575;52.600;7.318;2022-10-16T09:55:15;101236.82;;;14.81;94.24
47811;BME280;33575;52.600;7.318;2022-10-16T09:57:49;101235.50;;;14.87;92.96
47811;BME280;33575;52.600;7.318;2022-10-16T10:00:16;101237.81;;;14.68;93.84
47811;BME280;33575;52.600;7.318;2022-10-16T10:02:42;101238.57;;;14.86;91.86
47811;BME280;33575;52.600;7.318;2022-10-16T10:05:19;101240.44;;;14.95;92.53
47811;BME280;33575;52.600;7.318;2022-10-16T10:07:44;101248.87;;;14.94;92.91
47811;BME280;33575;52.600;7.318;2022-10-16T10:10:20;101249.46;;;15.06;92.53
47811;BME280;33575;52.600;7.318;2022-10-16T10:12:45;101246.48;;;14.99;92.20
47811;BME280;33575;52.600;7.318;2022-10-16T10:15:15;101247.07;;;14.83;93.55
47811;BME280;33575;52.600;7.318;2022-10-16T10:17:46;101253.69;;;14.91;92.43
47811;BME280;33575;52.600;7.318;2022-10-16T10:20:22;101258.45;;;14.89;91.05
47811;BME280;33575;52.600;7.318;2022-10-16T10:22:45;101259.61;;;15.01;91.00
47811;BME280;33575;52.600;7.318;2022-10-16T10:25:22;101260.65;;;14.91;90.11
47811;BME280;33575;52.600;7.318;2022-10-16T10:28:01;101260.10;;;14.93;89.92
47811;BME280;33575;52.600;7.318;2022-10-16T10:30:20;101267.86;;;15.17;91.26
47811;BME280;33575;52.600;7.318;2022-10-16T10:32:55;101267.05;;;15.33;90.75
47811;BME280;33575;52.600;7.318;2022-10-16T10:35:22;101262.65;;;15.39;91.39
47811;BME280;33575;52.600;7.318;2022-10-16T10:38:00;101272.36;;;15.37;89.48
47811;BME280;33575;52.600;7.318;2022-10-16T10:40:29;101270.76;;;15.32;89.00
47811;BME280;33575;52.600;7.318;2022-10-16T10:42:53;101267.79;;;15.19;88.89
47811;BME280;33575;52.600;7.318;2022-10-16T10:45:24;101267.40;;;15.37;88.53
47811;BME280;33575;52.600;7.318;2022-10-16T10:47:59;101265.08;;;15.38;89.49
47811;BME280;33575;52.600;7.318;2022-10-16T10:50:24;101274.71;;;15.26;87.55
47811;BME280;33575;52.600;7.318;2022-10-16T10:52:58;101278.41;;;15.42;87.59
47811;BME280;33575;52.600;7.318;2022-10-16T10:55:24;101281.80;;;15.51;86.91
47811;BME280;33575;52.600;7.318;2022-10-16T10:58:01;101293.72;;;15.44;86.10
47811;BME280;33575;52.600;7.318;2022-10-16T11:00:25;101287.13;;;15.42;86.36
47811;BME280;33575;52.600;7.318;2022-10-16T11:02:57;101287.02;;;15.49;86.36
47811;BME280;33575;52.600;7.318;2022-10-16T11:05:30;101287.56;;;15.51;85.38
47811;BME280;33575;52.600;7.318;2022-10-16T11:07:56;101288.52;;;15.67;86.01
47811;BME280;33575;52.600;7.318;2022-10-16T11:10:24;101284.03;;;15.68;86.28
47811;BME280;33575;52.600;7.318;2022-10-16T11:12:57;101295.10;;;15.68;85.10
47811;BME280;33575;52.600;7.318;2022-10-16T11:15:26;101300.42;;;15.75;86.36
47811;BME280;33575;52.600;7.318;2022-10-16T11:17:57;101297.18;;;15.74;85.11
47811;BME280;33575;52.600;7.318;2022-10-16T11:20:25;101308.96;;;15.74;83.34
47811;BME280;33575;52.600;7.318;2022-10-16T11:22:56;101313.50;;;15.82;83.77
47811;BME280;33575;52.600;7.318;2022-10-16T11:25:26;101313.76;;;15.78;83.41
47811;BME280;33575;52.600;7.318;2022-10-16T11:27:58;101308.41;;;15.74;82.98
47811;BME280;33575;52.600;7.318;2022-10-16T11:30:26;101304.77;;;15.74;83.56
47811;BME280;33575;52.600;7.318;2022-10-16T11:33:05;101307.12;;;15.86;84.03
47811;BME280;33575;52.600;7.318;2022-10-16T11:35:33;101312.65;;;15.88;82.25
47811;BME280;33575;52.600;7.318;2022-10-16T11:37:57;101309.60;;;16.07;82.71
47811;BME280;33575;52.600;7.318;2022-10-16T11:40:30;101312.03;;;16.05;82.72
47811;BME280;33575;52.600;7.318;2022-10-16T11:43:02;101310.86;;;15.91;83.80
47811;BME280;33575;52.600;7.318;2022-10-16T11:45:32;101327.42;;;16.16;82.74
47811;BME280;33575;52.600;7.318;2022-10-16T11:48:05;101327.19;;;16.25;83.79
47811;BME280;33575;52.600;7.318;2022-10-16T11:50:33;101337.18;;;16.10;81.57
47811;BME280;33575;52.600;7.318;2022-10-16T11:53:03;101334.57;;;16.10;82.31
47811;BME280;33575;52.600;7.318;2022-10-16T11:55:32;101341.93;;;16.21;82.20
47811;BME280;33575;52.600;7.318;2022-10-16T11:58:02;101339.76;;;16.12;81.99
47811;BME280;33575;52.600;7.318;2022-10-16T12:00:33;101340.78;;;16.24;85.84
47811;BME280;33575;52.600;7.318;2022-10-16T12:03:05;101343.37;;;16.25;84.81
47811;BME280;33575;52.600;7.318;2022-10-16T12:05:35;101343.26;;;16.24;82.30
47811;BME280;33575;52.600;7.318;2022-10-16T12:08:08;101350.95;;;16.18;83.31
47811;BME280;33575;52.600;7.318;2022-10-16T12:10:30;101350.31;;;16.16;82.23
47811;BME280;33575;52.600;7.318;2022-10-16T12:13:00;101354.91;;;16.15;83.26
47811;BME280;33575;52.600;7.318;2022-10-16T12:15:36;101351.64;;;16.20;83.51
47811;BME280;33575;52.600;7.318;2022-10-16T12:18:01;101354.13;;;16.13;82.43
47811;BME280;33575;52.600;7.318;2022-10-16T12:20:33;101355.59;;;16.05;83.31
47811;BME280;33575;52.600;7.318;2022-10-16T12:23:03;101349.76;;;16.14;82.33
47811;BME280;33575;52.600;7.318;2022-10-16T12:25:34;101354.29;;;16.21;84.48
47811;BME280;33575;52.600;7.318;2022-10-16T12:28:04;101359.22;;;16.37;83.58
47811;BME280;33575;52.600;7.318;2022-10-16T12:30:37;101366.76;;;16.30;82.11
47811;BME280;33575;52.600;7.318;2022-10-16T12:33:05;101362.94;;;16.28;82.05
47811;BME280;33575;52.600;7.318;2022-10-16T12:35:35;101371.53;;;16.28;82.10
47811;BME280;33575;52.600;7.318;2022-10-16T12:38:14;101369.89;;;16.29;80.98
47811;BME280;33575;52.600;7.318;2022-10-16T12:40:36;101374.50;;;16.37;81.45
47811;BME280;33575;52.600;7.318;2022-10-16T12:43:13;101375.15;;;16.39;79.74
47811;BME280;33575;52.600;7.318;2022-10-16T12:45:34;101378.20;;;16.38;80.53
47811;BME280;33575;52.600;7.318;2022-10-16T12:50:37;101392.77;;;16.64;81.78
47811;BME280;33575;52.600;7.318;2022-10-16T12:55:45;101385.13;;;16.79;82.24
47811;BME280;33575;52.600;7.318;2022-10-16T12:58:15;101386.43;;;16.61;76.86
47811;BME280;33575;52.600;7.318;2022-10-16T13:00:43;101384.96;;;16.81;78.54
47811;BME280;33575;52.600;7.318;2022-10-16T13:05:45;101382.76;;;16.88;79.49
47811;BME280;33575;52.600;7.318;2022-10-16T13:08:22;101390.57;;;16.91;79.44
47811;BME280;33575;52.600;7.318;2022-10-16T13:10:41;101396.55;;;16.96;79.29
47811;BME280;33575;52.600;7.318;2022-10-16T13:13:16;101396.85;;;17.05;79.89
47811;BME280;33575;52.600;7.318;2022-10-16T13:15:49;101405.46;;;17.12;79.38
47811;BME280;33575;52.600;7.318;2022-10-16T13:18:14;101404.54;;;17.01;78.82